sensor_id;sensor_type;location;lat;lon;timestamp;temperature;humidity
67777;DHT22;54576;52.020;5.536;2023-04-24T00:00:01;10.20;99.90
67777;DHT22;54576;52.020;5.536;2023-04-24T00:02:26;10.20;99.90
67777;DHT22;54576;52.020;5.536;2023-04-24T00:04:52;10.10;99.90
67777;DHT22;54576;52.020;5.536;2023-04-24T00:07:17;10.20;99.90
67777;DHT22;54576;52.020;5.536;2023-04-24T00:09:45;10.10;99.90
67777;DHT22;54576;52.020;5.536;2023-04-24T00:12:11;10.10;99.90
67777;DHT22;54576;52.020;5.536;2023-04-24T00:14:36;10.10;99.90
67777;DHT22;54576;52.020;5.536;2023-04-24T00:17:02;10.20;99.90
67777;DHT22;54576;52.020;5.536;2023-04-24T00:19:28;10.20;99.90
67777;DHT22;54576;52.020;5.536;2023-04-24T00:21:54;10.20;99.90
67777;DHT22;54576;52.020;5.536;2023-04-24T00:24:20;10.20;99.90
67777;DHT22;54576;52.020;5.536;2023-04-24T00:26:45;10.20;99.90
67777;DHT22;54576;52.020;5.536;2023-04-24T00:29:11;10.20;99.90
67777;DHT22;54576;52.020;5.536;2023-04-24T00:31:37;10.20;99.90
67777;DHT22;54576;52.020;5.536;2023-04-24T00:34:03;10.30;99.90
67777;DHT22;54576;52.020;5.536;2023-04-24T00:36:29;10.20;99.90
67777;DHT22;54576;52.020;5.536;2023-04-24T00:38:59;10.20;99.90
67777;DHT22;54576;52.020;5.536;2023-04-24T00:41:25;10.20;99.90
67777;DHT22;54576;52.020;5.536;2023-04-24T00:43:52;10.20;99.90
67777;DHT22;54576;52.020;5.536;2023-04-24T00:46:17;10.20;99.90
67777;DHT22;54576;52.020;5.536;2023-04-24T00:48:43;10.20;99.90
67777;DHT22;54576;52.020;5.536;2023-04-24T00:51:09;10.20;99.90
67777;DHT22;54576;52.020;5.536;2023-04-24T00:53:35;10.20;99.90
67777;DHT22;54576;52.020;5.536;2023-04-24T00:56:01;10.20;99.90
67777;DHT22;54576;52.020;5.536;2023-04-24T00:58:28;10.20;99.90
67777;DHT22;54576;52.020;5.536;2023-04-24T01:00:54;10.20;99.90
67777;DHT22;54576;52.020;5.536;2023-04-24T01:03:22;10.20;99.90
67777;DHT22;54576;52.020;5.536;2023-04-24T01:05:50;10.20;99.90
67777;DHT22;54576;52.020;5.536;2023-04-24T01:08:16;10.20;99.90
67777;DHT22;54576;52.020;5.536;2023-04-24T01:10:41;10.20;99.90
67777;DHT22;54576;52.020;5.536;2023-04-24T01:13:09;10.10;99.90
67777;DHT22;54576;52.020;5.536;2023-04-24T01:15:35;10.10;99.90
67777;DHT22;54576;52.020;5.536;2023-04-24T01:18:00;10.10;99.90
67777;DHT22;54576;52.020;5.536;2023-04-24T01:20:26;10.00;99.90
67777;DHT22;54576;52.020;5.536;2023-04-24T01:22:54;10.00;99.90
67777;DHT22;54576;52.020;5.536;2023-04-24T01:25:20;10.00;99.90
67777;DHT22;54576;52.020;5.536;2023-04-24T01:27:45;10.00;99.90
67777;DHT22;54576;52.020;5.536;2023-04-24T01:30:12;10.00;99.90
67777;DHT22;54576;52.020;5.536;2023-04-24T01:32:38;10.00;99.90
67777;DHT22;54576;52.020;5.536;2023-04-24T01:35:04;10.00;99.90
67777;DHT22;54576;52.020;5.536;2023-04-24T01:37:30;10.00;99.90
67777;DHT22;54576;52.020;5.536;2023-04-24T01:39:57;10.00;99.90
67777;DHT22;54576;52.020;5.536;2023-04-24T01:42:23;10.10;99.90
67777;DHT22;54576;52.020;5.536;2023-04-24T01:44:49;10.10;99.90
67777;DHT22;54576;52.020;5.536;2023-04-24T01:47:15;10.10;99.90
67777;DHT22;54576;52.020;5.536;2023-04-24T01:49:41;10.10;99.90
67777;DHT22;54576;52.020;5.536;2023-04-24T01:52:06;10.10;99.90
67777;DHT22;54576;52.020;5.536;2023-04-24T01:54:32;10.20;99.90
67777;DHT22;54576;52.020;5.536;2023-04-24T01:56:57;10.20;99.90
67777;DHT22;54576;52.020;5.536;2023-04-24T01:59:23;10.20;99.90
67777;DHT22;54576;52.020;5.536;2023-04-24T02:01:50;10.10;99.90
67777;DHT22;54576;52.020;5.536;2023-04-24T02:04:15;10.10;99.90
67777;DHT22;54576;52.020;5.536;2023-04-24T02:06:41;10.20;99.90
67777;DHT22;54576;52.020;5.536;2023-04-24T02:09:07;10.20;99.90
67777;DHT22;54576;52.020;5.536;2023-04-24T02:11:33;10.20;99.90
67777;DHT22;54576;52.020;5.536;2023-04-24T02:13:58;10.20;99.90
67777;DHT22;54576;52.020;5.536;2023-04-24T02:16:24;10.20;99.90
67777;DHT22;54576;52.020;5.536;2023-04-24T02:18:50;10.20;99.90
67777;DHT22;54576;52.020;5.536;2023-04-24T02:21:15;10.20;99.90
67777;DHT22;54576;52.020;5.536;2023-04-24T02:23:41;10.20;99.90
67777;DHT22;54576;52.020;5.536;2023-04-24T02:26:06;10.20;99.90
67777;DHT22;54576;52.020;5.536;2023-04-24T02:28:32;10.20;99.90
67777;DHT22;54576;52.020;5.536;2023-04-24T02:30:57;10.20;99.90
67777;DHT22;54576;52.020;5.536;2023-04-24T02:33:24;10.20;99.90
67777;DHT22;54576;52.020;5.536;2023-04-24T02:35:49;10.20;99.90
67777;DHT22;54576;52.020;5.536;2023-04-24T02:38:15;10.20;99.90
67777;DHT22;54576;52.020;5.536;2023-04-24T02:40:40;10.20;99.90
67777;DHT22;54576;52.020;5.536;2023-04-24T02:43:06;10.10;99.90
67777;DHT22;54576;52.020;5.536;2023-04-24T02:45:34;10.20;99.90
67777;DHT22;54576;52.020;5.536;2023-04-24T02:48:00;10.20;99.90
67777;DHT22;54576;52.020;5.536;2023-04-24T02:50:26;10.20;99.90
67777;DHT22;54576;52.020;5.536;2023-04-24T02:52:51;10.20;99.90
67777;DHT22;54576;52.020;5.536;2023-04-24T02:55:17;10.20;99.90
67777;DHT22;54576;52.020;5.536;2023-04-24T02:57:42;10.20;99.90
67777;DHT22;54576;52.020;5.536;2023-04-24T03:00:08;10.20;99.90
67777;DHT22;54576;52.020;5.536;2023-04-24T03:02:34;10.20;99.90
67777;DHT22;54576;52.020;5.536;2023-04-24T03:05:00;10.20;99.90
67777;DHT22;54576;52.020;5.536;2023-04-24T03:07:25;10.20;99.90
67777;DHT22;54576;52.020;5.536;2023-04-24T03:09:51;10.20;99.90
67777;DHT22;54576;52.020;5.536;2023-04-24T03:12:17;10.20;99.90
67777;DHT22;54576;52.020;5.536;2023-04-24T03:14:43;10.20;99.90
67777;DHT22;54576;52.020;5.536;2023-04-24T03:17:09;10.20;99.90
67777;DHT22;54576;52.020;5.536;2023-04-24T03:19:34;10.10;99.90
67777;DHT22;54576;52.020;5.536;2023-04-24T03:22:02;10.10;99.90
67777;DHT22;54576;52.020;5.536;2023-04-24T03:24:28;10.10;99.90
67777;DHT22;54576;52.020;5.536;2023-04-24T03:26:53;10.10;99.90
67777;DHT22;54576;52.020;5.536;2023-04-24T03:29:19;10.10;99.90
67777;DHT22;54576;52.020;5.536;2023-04-24T03:31:44;10.10;99.90
67777;DHT22;54576;52.020;5.536;2023-04-24T03:34:10;10.10;99.90
67777;DHT22;54576;52.020;5.536;2023-04-24T03:36:36;10.10;99.90
67777;DHT22;54576;52.020;5.536;2023-04-24T03:39:01;10.10;99.90
67777;DHT22;54576;52.020;5.536;2023-04-24T03:41:30;10.10;99.90
67777;DHT22;54576;52.020;5.536;2023-04-24T03:43:56;10.10;99.90
67777;DHT22;54576;52.020;5.536;2023-04-24T03:46:21;10.10;99.90
67777;DHT22;54576;52.020;5.536;2023-04-24T03:48:47;10.10;99.90
67777;DHT22;54576;52.020;5.536;2023-04-24T03:51:12;10.10;99.90
67777;DHT22;54576;52.020;5.536;2023-04-24T03:53:38;10.10;99.90
67777;DHT22;54576;52.020;5.536;2023-04-24T03:56:03;10.10;99.90
67777;DHT22;54576;52.020;5.536;2023-04-24T03:58:29;10.10;99.90
67777;DHT22;54576;52.020;5.536;2023-04-24T04:00:55;10.10;99.90
67777;DHT22;54576;52.020;5.536;2023-04-24T04:03:23;10.10;99.90
67777;DHT22;54576;52.020;5.536;2023-04-24T04:05:49;10.10;99.90
67777;DHT22;54576;52.020;5.536;2023-04-24T04:08:14;10.10;99.90
67777;DHT22;54576;52.020;5.536;2023-04-24T04:10:40;10.00;99.90
67777;DHT22;54576;52.020;5.536;2023-04-24T04:13:06;10.10;99.90
67777;DHT22;54576;52.020;5.536;2023-04-24T04:15:32;10.10;99.90
67777;DHT22;54576;52.020;5.536;2023-04-24T04:17:57;10.10;99.90
67777;DHT22;54576;52.020;5.536;2023-04-24T04:20:23;10.10;99.90
67777;DHT22;54576;52.020;5.536;2023-04-24T04:22:49;10.10;99.90
67777;DHT22;54576;52.020;5.536;2023-04-24T04:25:14;10.00;99.90
67777;DHT22;54576;52.020;5.536;2023-04-24T04:27:40;10.00;99.90
67777;DHT22;54576;52.020;5.536;2023-04-24T04:30:07;10.00;99.90
67777;DHT22;54576;52.020;5.536;2023-04-24T04:32:34;10.00;99.90
67777;DHT22;54576;52.020;5.536;2023-04-24T04:35:01;10.00;99.90
67777;DHT22;54576;52.020;5.536;2023-04-24T04:37:29;10.00;99.90
67777;DHT22;54576;52.020;5.536;2023-04-24T04:39:54;10.10;99.90
67777;DHT22;54576;52.020;5.536;2023-04-24T04:42:20;10.10;99.90
67777;DHT22;54576;52.020;5.536;2023-04-24T04:44:45;10.00;99.90
67777;DHT22;54576;52.020;5.536;2023-04-24T04:47:11;10.00;99.90
67777;DHT22;54576;52.020;5.536;2023-04-24T04:49:38;10.00;99.90
67777;DHT22;54576;52.020;5.536;2023-04-24T04:52:04;10.00;99.90
67777;DHT22;54576;52.020;5.536;2023-04-24T04:54:30;9.90;99.90
67777;DHT22;54576;52.020;5.536;2023-04-24T04:56:56;10.00;99.90
67777;DHT22;54576;52.020;5.536;2023-04-24T04:59:22;10.00;99.90
67777;DHT22;54576;52.020;5.536;2023-04-24T05:01:48;10.00;99.90
67777;DHT22;54576;52.020;5.536;2023-04-24T05:04:13;10.00;99.90
67777;DHT22;54576;52.020;5.536;2023-04-24T05:06:39;10.00;99.90
67777;DHT22;54576;52.020;5.536;2023-04-24T05:09:07;9.90;99.90
67777;DHT22;54576;52.020;5.536;2023-04-24T05:11:33;10.00;99.90
67777;DHT22;54576;52.020;5.536;2023-04-24T05:13:59;10.00;99.90
67777;DHT22;54576;52.020;5.536;2023-04-24T05:16:24;10.00;99.90
67777;DHT22;54576;52.020;5.536;2023-04-24T05:18:50;10.00;99.90
67777;DHT22;54576;52.020;5.536;2023-04-24T05:21:15;10.00;99.90
67777;DHT22;54576;52.020;5.536;2023-04-24T05:23:41;10.00;99.90
67777;DHT22;54576;52.020;5.536;2023-04-24T05:26:07;10.00;99.90
67777;DHT22;54576;52.020;5.536;2023-04-24T05:28:32;10.00;99.90
67777;DHT22;54576;52.020;5.536;2023-04-24T05:30:58;10.10;99.90
67777;DHT22;54576;52.020;5.536;2023-04-24T05:33:25;10.10;99.90
67777;DHT22;54576;52.020;5.536;2023-04-24T05:35:50;10.10;99.90
67777;DHT22;54576;52.020;5.536;2023-04-24T05:38:16;10.10;99.90
67777;DHT22;54576;52.020;5.536;2023-04-24T05:40:45;10.20;99.90
67777;DHT22;54576;52.020;5.536;2023-04-24T05:43:10;10.20;99.90
67777;DHT22;54576;52.020;5.536;2023-04-24T05:45:36;10.20;99.90
67777;DHT22;54576;52.020;5.536;2023-04-24T05:48:03;10.20;99.90
67777;DHT22;54576;52.020;5.536;2023-04-24T05:50:28;10.20;99.90
67777;DHT22;54576;52.020;5.536;2023-04-24T05:52:54;10.20;99.90
67777;DHT22;54576;52.020;5.536;2023-04-24T05:55:20;10.20;99.90
67777;DHT22;54576;52.020;5.536;2023-04-24T05:57:46;10.30;99.90
67777;DHT22;54576;52.020;5.536;2023-04-24T06:00:12;10.30;99.90
67777;DHT22;54576;52.020;5.536;2023-04-24T06:02:38;10.30;99.90
67777;DHT22;54576;52.020;5.536;2023-04-24T06:05:04;10.30;99.90
67777;DHT22;54576;52.020;5.536;2023-04-24T06:07:30;10.40;99.90
67777;DHT22;54576;52.020;5.536;2023-04-24T06:09:56;10.30;99.90
67777;DHT22;54576;52.020;5.536;2023-04-24T06:12:22;10.30;99.90
67777;DHT22;54576;52.020;5.536;2023-04-24T06:14:48;10.30;99.90
67777;DHT22;54576;52.020;5.536;2023-04-24T06:17:14;10.30;99.90
67777;DHT22;54576;52.020;5.536;2023-04-24T06:19:39;10.30;99.90
67777;DHT22;54576;52.020;5.536;2023-04-24T06:22:08;10.30;99.90
67777;DHT22;54576;52.020;5.536;2023-04-24T06:24:34;10.20;99.90
67777;DHT22;54576;52.020;5.536;2023-04-24T06:26:59;10.20;99.90
67777;DHT22;54576;52.020;5.536;2023-04-24T06:29:26;10.20;99.90
67777;DHT22;54576;52.020;5.536;2023-04-24T06:31:52;10.10;99.90
67777;DHT22;54576;52.020;5.536;2023-04-24T06:34:18;10.10;99.90
67777;DHT22;54576;52.020;5.536;2023-04-24T06:36:43;10.10;99.90
67777;DHT22;54576;52.020;5.536;2023-04-24T06:39:09;10.10;99.90
67777;DHT22;54576;52.020;5.536;2023-04-24T06:41:34;10.10;99.90
67777;DHT22;54576;52.020;5.536;2023-04-24T06:44:00;10.00;99.90
67777;DHT22;54576;52.020;5.536;2023-04-24T06:46:26;10.00;99.90
67777;DHT22;54576;52.020;5.536;2023-04-24T06:48:53;9.90;99.90
67777;DHT22;54576;52.020;5.536;2023-04-24T06:51:25;9.90;99.90
67777;DHT22;54576;52.020;5.536;2023-04-24T06:53:53;9.90;99.90
67777;DHT22;54576;52.020;5.536;2023-04-24T06:56:22;9.90;99.90
67777;DHT22;54576;52.020;5.536;2023-04-24T06:58:48;9.80;99.90
67777;DHT22;54576;52.020;5.536;2023-04-24T07:01:14;9.80;99.90
67777;DHT22;54576;52.020;5.536;2023-04-24T07:03:39;9.70;99.90
67777;DHT22;54576;52.020;5.536;2023-04-24T07:06:05;9.70;99.90
67777;DHT22;54576;52.020;5.536;2023-04-24T07:08:31;9.70;99.90
67777;DHT22;54576;52.020;5.536;2023-04-24T07:10:58;9.70;99.90
67777;DHT22;54576;52.020;5.536;2023-04-24T07:13:24;9.70;99.90
67777;DHT22;54576;52.020;5.536;2023-04-24T07:15:49;9.60;99.90
67777;DHT22;54576;52.020;5.536;2023-04-24T07:18:16;9.50;99.90
67777;DHT22;54576;52.020;5.536;2023-04-24T07:20:42;9.60;99.90
67777;DHT22;54576;52.020;5.536;2023-04-24T07:23:07;9.60;99.90
67777;DHT22;54576;52.020;5.536;2023-04-24T07:25:33;9.50;99.90
67777;DHT22;54576;52.020;5.536;2023-04-24T07:27:59;9.50;99.90
67777;DHT22;54576;52.020;5.536;2023-04-24T07:30:25;9.40;99.90
67777;DHT22;54576;52.020;5.536;2023-04-24T07:32:51;9.40;99.90
67777;DHT22;54576;52.020;5.536;2023-04-24T07:35:16;9.40;99.90
67777;DHT22;54576;52.020;5.536;2023-04-24T07:37:42;9.40;99.90
67777;DHT22;54576;52.020;5.536;2023-04-24T07:40:12;9.40;99.90
67777;DHT22;54576;52.020;5.536;2023-04-24T07:42:38;9.30;99.90
67777;DHT22;54576;52.020;5.536;2023-04-24T07:45:04;9.20;99.90
67777;DHT22;54576;52.020;5.536;2023-04-24T07:47:30;9.30;99.90
67777;DHT22;54576;52.020;5.536;2023-04-24T07:49:55;9.30;99.90
67777;DHT22;54576;52.020;5.536;2023-04-24T07:52:21;9.20;99.90
67777;DHT22;54576;52.020;5.536;2023-04-24T07:54:47;9.20;99.90
67777;DHT22;54576;52.020;5.536;2023-04-24T07:57:12;9.20;99.90
67777;DHT22;54576;52.020;5.536;2023-04-24T07:59:39;9.20;99.90
67777;DHT22;54576;52.020;5.536;2023-04-24T08:02:04;9.20;99.90
67777;DHT22;54576;52.020;5.536;2023-04-24T08:04:31;9.20;99.90
67777;DHT22;54576;52.020;5.536;2023-04-24T08:06:57;9.20;99.90
67777;DHT22;54576;52.020;5.536;2023-04-24T08:09:22;9.30;99.90
67777;DHT22;54576;52.020;5.536;2023-04-24T08:11:48;9.20;99.90
67777;DHT22;54576;52.020;5.536;2023-04-24T08:14:14;9.30;99.90
67777;DHT22;54576;52.020;5.536;2023-04-24T08:16:40;9.30;99.90
67777;DHT22;54576;52.020;5.536;2023-04-24T08:19:06;9.30;99.90
67777;DHT22;54576;52.020;5.536;2023-04-24T08:21:32;9.30;99.90
67777;DHT22;54576;52.020;5.536;2023-04-24T08:23:57;9.30;99.90
67777;DHT22;54576;52.020;5.536;2023-04-24T08:26:23;9.30;99.90
67777;DHT22;54576;52.020;5.536;2023-04-24T08:28:49;9.30;99.90
67777;DHT22;54576;52.020;5.536;2023-04-24T08:31:14;9.30;99.90
67777;DHT22;54576;52.020;5.536;2023-04-24T08:33:40;9.30;99.90
67777;DHT22;54576;52.020;5.536;2023-04-24T08:36:07;9.30;99.90
67777;DHT22;54576;52.020;5.536;2023-04-24T08:38:33;9.30;99.90
67777;DHT22;54576;52.020;5.536;2023-04-24T08:41:02;9.20;99.90
67777;DHT22;54576;52.020;5.536;2023-04-24T08:43:28;9.20;99.90
67777;DHT22;54576;52.020;5.536;2023-04-24T08:45:56;9.20;99.90
67777;DHT22;54576;52.020;5.536;2023-04-24T08:48:22;9.20;99.90
67777;DHT22;54576;52.020;5.536;2023-04-24T08:50:50;9.20;99.90
67777;DHT22;54576;52.020;5.536;2023-04-24T08:53:16;9.20;99.90
67777;DHT22;54576;52.020;5.536;2023-04-24T08:55:43;9.30;99.90
67777;DHT22;54576;52.020;5.536;2023-04-24T08:58:11;9.30;99.90
67777;DHT22;54576;52.020;5.536;2023-04-24T09:00:39;9.40;99.90
67777;DHT22;54576;52.020;5.536;2023-04-24T09:03:05;9.40;99.90
67777;DHT22;54576;52.020;5.536;2023-04-24T09:05:32;9.40;99.90
67777;DHT22;54576;52.020;5.536;2023-04-24T09:07:59;9.40;99.90
67777;DHT22;54576;52.020;5.536;2023-04-24T09:10:27;9.50;99.90
67777;DHT22;54576;52.020;5.536;2023-04-24T09:12:56;9.50;99.90
67777;DHT22;54576;52.020;5.536;2023-04-24T09:15:23;9.60;99.90
67777;DHT22;54576;52.020;5.536;2023-04-24T09:17:49;9.70;99.90
67777;DHT22;54576;52.020;5.536;2023-04-24T09:20:15;9.80;99.90
67777;DHT22;54576;52.020;5.536;2023-04-24T09:22:42;9.80;99.90
67777;DHT22;54576;52.020;5.536;2023-04-24T09:25:08;9.90;99.90
67777;DHT22;54576;52.020;5.536;2023-04-24T09:27:35;9.90;99.90
67777;DHT22;54576;52.020;5.536;2023-04-24T09:30:01;9.90;99.90
67777;DHT22;54576;52.020;5.536;2023-04-24T09:32:27;9.90;99.90
67777;DHT22;54576;52.020;5.536;2023-04-24T09:35:14;9.90;99.90
67777;DHT22;54576;52.020;5.536;2023-04-24T09:37:46;9.90;99.90
67777;DHT22;54576;52.020;5.536;2023-04-24T09:40:17;9.90;99.90
67777;DHT22;54576;52.020;5.536;2023-04-24T09:42:55;9.80;99.90
67777;DHT22;54576;52.020;5.536;2023-04-24T09:45:22;9.80;99.90
67777;DHT22;54576;52.020;5.536;2023-04-24T09:47:55;10.00;99.90
67777;DHT22;54576;52.020;5.536;2023-04-24T09:50:21;10.20;99.90
67777;DHT22;54576;52.020;5.536;2023-04-24T09:52:57;10.40;99.90
67777;DHT22;54576;52.020;5.536;2023-04-24T09:55:23;10.60;99.90
67777;DHT22;54576;52.020;5.536;2023-04-24T09:57:50;10.80;99.90
67777;DHT22;54576;52.020;5.536;2023-04-24T10:02:50;11.10;99.90
67777;DHT22;54576;52.020;5.536;2023-04-24T10:05:17;11.20;99.90
67777;DHT22;54576;52.020;5.536;2023-04-24T10:07:43;11.30;99.90
67777;DHT22;54576;52.020;5.536;2023-04-24T10:10:09;11.30;99.90
67777;DHT22;54576;52.020;5.536;2023-04-24T10:12:34;11.10;99.90
67777;DHT22;54576;52.020;5.536;2023-04-24T10:15:01;10.90;99.90
67777;DHT22;54576;52.020;5.536;2023-04-24T10:17:28;10.90;99.90
67777;DHT22;54576;52.020;5.536;2023-04-24T10:19:55;10.90;99.90
67777;DHT22;54576;52.020;5.536;2023-04-24T10:22:21;10.90;99.90
67777;DHT22;54576;52.020;5.536;2023-04-24T10:24:49;11.00;99.90
67777;DHT22;54576;52.020;5.536;2023-04-24T10:27:16;11.10;99.90
67777;DHT22;54576;52.020;5.536;2023-04-24T10:29:43;11.20;99.90
67777;DHT22;54576;52.020;5.536;2023-04-24T10:32:09;11.30;99.90
67777;DHT22;54576;52.020;5.536;2023-04-24T10:34:36;11.40;99.90
67777;DHT22;54576;52.020;5.536;2023-04-24T10:37:02;11.40;99.90
67777;DHT22;54576;52.020;5.536;2023-04-24T10:39:28;11.30;99.90
67777;DHT22;54576;52.020;5.536;2023-04-24T10:41:56;11.10;99.20
67777;DHT22;54576;52.020;5.536;2023-04-24T10:44:23;10.80;98.10
67777;DHT22;54576;52.020;5.536;2023-04-24T10:46:53;10.60;99.90
67777;DHT22;54576;52.020;5.536;2023-04-24T10:49:28;10.50;99.80
67777;DHT22;54576;52.020;5.536;2023-04-24T10:51:54;10.50;99.90
67777;DHT22;54576;52.020;5.536;2023-04-24T10:54:27;10.60;99.90
67777;DHT22;54576;52.020;5.536;2023-04-24T10:56:53;10.80;99.90
67777;DHT22;54576;52.020;5.536;2023-04-24T10:59:27;11.10;99.90
67777;DHT22;54576;52.020;5.536;2023-04-24T11:01:54;11.20;97.30
67777;DHT22;54576;52.020;5.536;2023-04-24T11:04:29;11.40;98.70
67777;DHT22;54576;52.020;5.536;2023-04-24T11:06:57;11.60;98.50
67777;DHT22;54576;52.020;5.536;2023-04-24T11:09:35;11.60;98.50
67777;DHT22;54576;52.020;5.536;2023-04-24T11:12:05;11.60;98.00
67777;DHT22;54576;52.020;5.536;2023-04-24T11:17:31;11.60;87.00
67777;DHT22;54576;52.020;5.536;2023-04-24T11:20:10;11.60;92.90
67777;DHT22;54576;52.020;5.536;2023-04-24T11:22:38;11.70;96.40
67777;DHT22;54576;52.020;5.536;2023-04-24T11:25:08;11.80;98.60
67777;DHT22;54576;52.020;5.536;2023-04-24T11:27:44;11.90;98.40
67777;DHT22;54576;52.020;5.536;2023-04-24T11:30:11;11.90;96.70
67777;DHT22;54576;52.020;5.536;2023-04-24T11:32:43;11.80;98.10
67777;DHT22;54576;52.020;5.536;2023-04-24T11:37:52;11.70;93.80
67777;DHT22;54576;52.020;5.536;2023-04-24T11:40:20;11.60;95.50
67777;DHT22;54576;52.020;5.536;2023-04-24T11:42:49;11.40;98.30
67777;DHT22;54576;52.020;5.536;2023-04-24T11:47:44;10.90;99.90
67777;DHT22;54576;52.020;5.536;2023-04-24T11:50:12;10.70;99.50
67777;DHT22;54576;52.020;5.536;2023-04-24T11:52:42;10.60;99.90
67777;DHT22;54576;52.020;5.536;2023-04-24T11:57:54;10.50;99.90
67777;DHT22;54576;52.020;5.536;2023-04-24T12:00:22;10.60;99.90
67777;DHT22;54576;52.020;5.536;2023-04-24T12:02:49;10.70;99.90
67777;DHT22;54576;52.020;5.536;2023-04-24T12:05:26;10.80;99.90
67777;DHT22;54576;52.020;5.536;2023-04-24T12:07:52;10.90;99.90
67777;DHT22;54576;52.020;5.536;2023-04-24T12:10:24;11.30;99.90
67777;DHT22;54576;52.020;5.536;2023-04-24T12:12:51;11.40;99.90
67777;DHT22;54576;52.020;5.536;2023-04-24T12:15:18;11.70;98.50
67777;DHT22;54576;52.020;5.536;2023-04-24T12:17:45;11.90;96.50
67777;DHT22;54576;52.020;5.536;2023-04-24T12:20:12;12.10;96.50
67777;DHT22;54576;52.020;5.536;2023-04-24T12:22:51;12.20;94.50
67777;DHT22;54576;52.020;5.536;2023-04-24T12:25:22;12.30;93.80
67777;DHT22;54576;52.020;5.536;2023-04-24T12:30:30;12.40;99.90
67777;DHT22;54576;52.020;5.536;2023-04-24T12:32:58;12.20;95.00
67777;DHT22;54576;52.020;5.536;2023-04-24T12:35:27;12.20;94.90
67777;DHT22;54576;52.020;5.536;2023-04-24T12:37:52;12.10;96.00
67777;DHT22;54576;52.020;5.536;2023-04-24T12:40:19;12.20;95.70
67777;DHT22;54576;52.020;5.536;2023-04-24T12:42:47;12.20;94.60
67777;DHT22;54576;52.020;5.536;2023-04-24T12:50:08;12.50;99.90
67777;DHT22;54576;52.020;5.536;2023-04-24T12:52:35;12.50;99.90
67777;DHT22;54576;52.020;5.536;2023-04-24T12:55:01;12.50;99.90
67777;DHT22;54576;52.020;5.536;2023-04-24T12:57:28;12.50;99.90
67777;DHT22;54576;52.020;5.536;2023-04-24T12:59:56;12.30;92.40
67777;DHT22;54576;52.020;5.536;2023-04-24T13:02:22;12.10;91.50
67777;DHT22;54576;52.020;5.536;2023-04-24T13:04:49;11.90;90.10
67777;DHT22;54576;52.020;5.536;2023-04-24T13:07:15;11.70;89.50
67777;DHT22;54576;52.020;5.536;2023-04-24T13:09:42;11.60;92.20
67777;DHT22;54576;52.020;5.536;2023-04-24T13:12:08;11.60;92.40
67777;DHT22;54576;52.020;5.536;2023-04-24T13:14:34;11.70;93.00
67777;DHT22;54576;52.020;5.536;2023-04-24T13:17:00;11.70;92.70
67777;DHT22;54576;52.020;5.536;2023-04-24T13:19:26;11.70;91.20
67777;DHT22;54576;52.020;5.536;2023-04-24T13:21:56;11.70;92.30
67777;DHT22;54576;52.020;5.536;2023-04-24T13:24:23;11.70;91.30
67777;DHT22;54576;52.020;5.536;2023-04-24T13:26:52;11.70;91.70
67777;DHT22;54576;52.020;5.536;2023-04-24T13:29:18;11.60;91.20
67777;DHT22;54576;52.020;5.536;2023-04-24T13:31:44;11.50;91.60
67777;DHT22;54576;52.020;5.536;2023-04-24T13:34:10;11.50;91.60
67777;DHT22;54576;52.020;5.536;2023-04-24T13:36:36;11.60;93.00
67777;DHT22;54576;52.020;5.536;2023-04-24T13:39:02;11.70;91.00
67777;DHT22;54576;52.020;5.536;2023-04-24T13:41:29;11.90;90.40
67777;DHT22;54576;52.020;5.536;2023-04-24T13:43:55;12.00;82.50
67777;DHT22;54576;52.020;5.536;2023-04-24T13:46:21;12.10;85.00
67777;DHT22;54576;52.020;5.536;2023-04-24T13:48:47;12.20;82.90
67777;DHT22;54576;52.020;5.536;2023-04-24T13:51:12;12.30;83.00
67777;DHT22;54576;52.020;5.536;2023-04-24T13:53:38;12.20;74.20
67777;DHT22;54576;52.020;5.536;2023-04-24T13:56:04;12.10;81.40
67777;DHT22;54576;52.020;5.536;2023-04-24T13:58:31;12.10;77.80
67777;DHT22;54576;52.020;5.536;2023-04-24T14:00:56;12.20;81.90
67777;DHT22;54576;52.020;5.536;2023-04-24T14:03:22;12.50;81.70
67777;DHT22;54576;52.020;5.536;2023-04-24T14:05:48;12.60;79.20
67777;DHT22;54576;52.020;5.536;2023-04-24T14:08:13;12.60;78.10
67777;DHT22;54576;52.020;5.536;2023-04-24T14:10:39;12.80;76.60
67777;DHT22;54576;52.020;5.536;2023-04-24T14:13:05;12.90;79.10
67777;DHT22;54576;52.020;5.536;2023-04-24T14:15:31;12.90;75.00
67777;DHT22;54576;52.020;5.536;2023-04-24T14:17:57;13.00;78.20
67777;DHT22;54576;52.020;5.536;2023-04-24T14:20:23;12.80;76.30
67777;DHT22;54576;52.020;5.536;2023-04-24T14:22:48;12.50;75.30
67777;DHT22;54576;52.020;5.536;2023-04-24T14:25:14;12.50;75.10
67777;DHT22;54576;52.020;5.536;2023-04-24T14:27:40;12.50;76.40
67777;DHT22;54576;52.020;5.536;2023-04-24T14:30:07;12.60;74.50
67777;DHT22;54576;52.020;5.536;2023-04-24T14:32:32;12.50;73.10
67777;DHT22;54576;52.020;5.536;2023-04-24T14:34:58;12.40;73.20
67777;DHT22;54576;52.020;5.536;2023-04-24T14:37:24;12.40;75.10
67777;DHT22;54576;52.020;5.536;2023-04-24T14:39:49;12.30;71.90
67777;DHT22;54576;52.020;5.536;2023-04-24T14:42:15;12.30;72.70
67777;DHT22;54576;52.020;5.536;2023-04-24T14:44:42;12.10;65.30
67777;DHT22;54576;52.020;5.536;2023-04-24T14:47:07;12.20;73.00
67777;DHT22;54576;52.020;5.536;2023-04-24T14:49:33;12.20;73.10
67777;DHT22;54576;52.020;5.536;2023-04-24T14:51:59;12.10;72.40
67777;DHT22;54576;52.020;5.536;2023-04-24T14:54:24;12.10;72.90
67777;DHT22;54576;52.020;5.536;2023-04-24T14:56:50;12.10;72.30
67777;DHT22;54576;52.020;5.536;2023-04-24T14:59:16;12.10;72.40
67777;DHT22;54576;52.020;5.536;2023-04-24T15:01:41;12.00;71.00
67777;DHT22;54576;52.020;5.536;2023-04-24T15:04:07;12.00;72.90
67777;DHT22;54576;52.020;5.536;2023-04-24T15:06:33;11.90;73.20
67777;DHT22;54576;52.020;5.536;2023-04-24T15:08:58;11.80;74.40
67777;DHT22;54576;52.020;5.536;2023-04-24T15:11:24;11.70;73.40
67777;DHT22;54576;52.020;5.536;2023-04-24T15:13:50;11.80;73.30
67777;DHT22;54576;52.020;5.536;2023-04-24T15:16:15;11.80;74.00
67777;DHT22;54576;52.020;5.536;2023-04-24T15:18:41;11.80;74.00
67777;DHT22;54576;52.020;5.536;2023-04-24T15:21:07;11.80;75.30
67777;DHT22;54576;52.020;5.536;2023-04-24T15:23:32;11.90;75.80
67777;DHT22;54576;52.020;5.536;2023-04-24T15:25:58;11.80;75.50
67777;DHT22;54576;52.020;5.536;2023-04-24T15:28:24;11.80;76.40
67777;DHT22;54576;52.020;5.536;2023-04-24T15:30:53;11.90;77.90
67777;DHT22;54576;52.020;5.536;2023-04-24T15:33:18;11.90;74.20
67777;DHT22;54576;52.020;5.536;2023-04-24T15:35:44;12.00;78.50
67777;DHT22;54576;52.020;5.536;2023-04-24T15:38:10;12.10;78.70
67777;DHT22;54576;52.020;5.536;2023-04-24T15:40:36;12.20;78.90
67777;DHT22;54576;52.020;5.536;2023-04-24T15:43:02;12.20;78.60
67777;DHT22;54576;52.020;5.536;2023-04-24T15:45:27;12.20;79.10
67777;DHT22;54576;52.020;5.536;2023-04-24T15:47:53;12.10;78.00
67777;DHT22;54576;52.020;5.536;2023-04-24T15:50:18;12.10;78.50